Time;durP1;ratioP1;P1;durP2;ratioP2;P2;SDS_P1;SDS_P2;PMS_P1;PMS_P2;Temp;Humidity;BMP_temperature;BMP_pressure;BME280_temperature;BME280_humidity;BME280_pressure;Samples;Min_cycle;Max_cycle;Signal;HPM_P1;HPM_P2
2022/11/18 06:28:20;;;;;;;;;2.00;2.00;;;;;8.50;100.00;99901.84;6206407;22;47970;-75
2022/11/18 06:30:45;;;;;;;;;4.25;3.25;;;;;9.38;100.00;100059.34;6234190;22;49890;-73
2022/11/18 06:33:11;;;;;;;;;6.50;4.25;;;;;9.30;100.00;100053.09;6237046;22;49738;-84
2022/11/18 06:35:36;;;;;;;;;1.00;1.00;;;;;9.34;100.00;100057.53;6236088;22;49595;-75
2022/11/18 06:38:02;;;;;;;;;1.00;1.00;;;;;8.50;100.00;99943.69;6233881;22;49754;-78
2022/11/18 06:40:27;;;;;;;;;4.25;1.25;;;;;9.57;100.00;100108.53;6210417;22;49733;-76
2022/11/18 06:45:36;;;;;;;;;1.75;1.25;;;;;8.43;100.00;99963.63;6237192;22;49590;-78
2022/11/18 06:48:03;;;;;;;;;1.00;1.00;;;;;9.04;100.00;100044.84;6236578;22;50151;-77
2022/11/18 06:50:29;;;;;;;;;4.00;3.50;;;;;9.50;100.00;100155.56;6237802;22;49780;-81
2022/11/18 06:52:55;;;;;;;;;1.25;1.25;;;;;8.71;100.00;99998.97;6235927;22;49857;-79
2022/11/18 06:55:20;;;;;;;;;2.75;2.75;;;;;7.83;100.00;99843.19;6213635;22;50069;-77
2022/11/18 06:57:54;;;;;;;;;1.00;0.00;;;;;9.01;100.00;100048.31;6236099;22;50220;-83
2022/11/18 07:00:19;;;;;;;;;2.75;2.75;;;;;7.71;100.00;99857.78;6237672;22;49767;-82
2022/11/18 07:02:45;;;;;;;;;5.75;3.50;;;;;9.45;100.00;100156.38;6209305;22;51560;-78
2022/11/18 07:05:15;;;;;;;;;2.75;2.00;;;;;7.15;100.00;99774.09;6209843;22;49769;-84
2022/11/18 07:07:43;;;;;;;;;2.50;1.25;;;;;7.99;100.00;99916.66;6237644;22;49766;-84
2022/11/18 07:10:11;;;;;;;;;2.00;2.00;;;;;8.17;100.00;99923.94;6242679;22;49700;-80
2022/11/18 07:12:37;;;;;;;;;3.00;2.00;;;;;8.76;100.00;100067.06;6209778;22;52394;-83
2022/11/18 07:15:02;;;;;;;;;1.00;1.00;;;;;8.88;100.00;100059.44;6237959;22;49944;-83
2022/11/18 07:17:33;;;;;;;;;1.25;1.25;;;;;8.73;100.00;100038.25;6240156;22;49495;-80
2022/11/18 07:19:58;;;;;;;;;3.25;2.00;;;;;8.20;100.00;99951.84;6210615;22;49859;-76
2022/11/18 07:22:23;;;;;;;;;4.00;4.00;;;;;8.15;100.00;99958.75;6237223;22;50568;-76
2022/11/18 07:24:49;;;;;;;;;1.00;1.00;;;;;9.44;100.00;100178.19;6237207;22;49693;-73
2022/11/18 07:27:14;;;;;;;;;2.00;2.00;;;;;9.31;100.00;100164.88;6209994;22;49847;-72
2022/11/18 07:29:39;;;;;;;;;3.25;2.00;;;;;8.32;100.00;100018.34;6207864;22;49807;-74
2022/11/18 07:32:05;;;;;;;;;4.75;3.25;;;;;8.67;100.00;100096.56;6247457;22;50097;-73
2022/11/18 07:34:31;;;;;;;;;2.25;1.50;;;;;9.27;100.00;100165.69;6247449;22;49290;-74
2022/11/18 07:36:59;;;;;;;;;5.00;5.00;;;;;9.33;100.00;100229.53;6247118;22;49414;-74
2022/11/18 07:39:24;;;;;;;;;3.00;3.00;;;;;8.65;100.00;100103.53;6247931;22;49397;-76
2022/11/18 07:41:50;;;;;;;;;2.00;2.00;;;;;8.54;100.00;100076.28;6246576;22;50419;-75
2022/11/18 07:44:16;;;;;;;;;2.00;0.50;;;;;7.74;100.00;99919.69;6244077;22;49563;-75
2022/11/18 07:46:42;;;;;;;;;7.50;5.75;;;;;8.72;100.00;100089.72;6243067;22;50244;-73
2022/11/18 07:49:07;;;;;;;;;2.75;2.50;;;;;9.33;100.00;100177.13;6221352;22;49497;-74
2022/11/18 07:51:35;;;;;;;;;1.00;1.00;;;;;9.57;100.00;100221.22;6246277;22;50237;-73
2022/11/18 07:54:05;;;;;;;;;3.00;3.00;;;;;9.31;100.00;100175.34;6239094;22;49636;-73
2022/11/18 07:56:30;;;;;;;;;3.75;3.00;;;;;9.40;100.00;100185.97;6237378;22;49654;-75
2022/11/18 07:58:56;;;;;;;;;2.00;2.00;;;;;9.04;100.00;100121.66;6238488;22;50005;-74
2022/11/18 08:01:23;;;;;;;;;4.00;2.50;;;;;9.16;100.00;100171.59;6238454;22;49776;-73
2022/11/18 08:03:49;;;;;;;;;2.00;2.00;;;;;9.58;100.00;100195.88;6236950;22;49680;-73
2022/11/18 08:06:16;;;;;;;;;2.00;2.00;;;;;9.47;100.00;100193.09;6237151;22;49540;-74
2022/11/18 08:08:45;;;;;;;;;1.00;1.00;;;;;9.57;100.00;100175.78;6235795;22;49909;-76
2022/11/18 08:11:13;;;;;;;;;2.25;2.25;;;;;9.98;100.00;100242.81;6235704;22;50830;-75
2022/11/18 08:13:38;;;;;;;;;3.25;1.75;;;;;9.71;100.00;100179.47;6235774;22;49768;-74
2022/11/18 08:16:12;;;;;;;;;2.00;2.00;;;;;8.74;100.00;100027.81;6236530;22;49874;-73
2022/11/18 08:18:37;;;;;;;;;3.00;2.00;;;;;8.77;100.00;100021.72;6235798;22;49754;-73
2022/11/18 08:21:03;;;;;;;;;4.25;2.25;;;;;9.69;100.00;100152.38;6235104;22;49706;-75
2022/11/18 08:23:29;;;;;;;;;3.75;1.25;;;;;8.50;100.00;99946.31;6237992;22;49670;-75
2022/11/18 08:26:01;;;;;;;;;1.75;1.25;;;;;9.56;100.00;100164.41;6207797;22;49740;-75
2022/11/18 08:28:26;;;;;;;;;1.00;1.00;;;;;9.64;100.00;100143.53;6235520;22;50000;-72
2022/11/18 08:30:51;;;;;;;;;0.25;0.25;;;;;10.32;100.00;100244.19;6236521;22;49759;-75
2022/11/18 08:33:17;;;;;;;;;0.00;0.00;;;;;9.38;100.00;100078.56;6235168;22;51332;-76
2022/11/18 08:35:42;;;;;;;;;2.00;1.75;;;;;10.42;100.00;100253.09;6235762;22;49665;-75
2022/11/18 08:38:07;;;;;;;;;3.00;3.00;;;;;10.39;100.00;100231.16;6235923;22;49693;-72
2022/11/18 08:40:33;;;;;;;;;2.00;2.00;;;;;10.42;100.00;100231.19;6235469;22;50814;-75
2022/11/18 08:42:58;;;;;;;;;2.25;1.75;;;;;10.35;100.00;100229.38;6238389;22;49785;-76
2022/11/18 08:45:24;;;;;;;;;1.75;1.75;;;;;10.53;100.00;100247.97;6207884;22;49689;-76
2022/11/18 08:47:49;;;;;;;;;2.75;2.00;;;;;9.22;100.00;100039.91;6235994;22;49908;-76
2022/11/18 08:50:15;;;;;;;;;2.00;2.00;;;;;10.52;100.00;100241.84;6237680;22;49641;-74
2022/11/18 08:52:40;;;;;;;;;2.00;2.00;;;;;10.63;100.00;100275.22;6235384;22;49934;-74
2022/11/18 08:55:06;;;;;;;;;1.00;1.00;;;;;9.03;100.00;99980.25;6235530;22;49951;-76
2022/11/18 08:57:31;;;;;;;;;1.00;1.00;;;;;9.39;100.00;100055.84;6208048;22;49943;-74
2022/11/18 08:59:56;;;;;;;;;1.00;1.00;;;;;9.32;100.00;100035.66;6238406;22;49762;-74
2022/11/18 09:02:22;;;;;;;;;1.75;1.00;;;;;10.79;100.00;100264.91;6235726;22;49700;-74
2022/11/18 09:04:49;;;;;;;;;2.00;2.00;;;;;10.81;100.00;100265.84;6211435;22;50091;-75
2022/11/18 09:07:16;;;;;;;;;2.00;1.00;;;;;10.69;100.00;100234.16;6243691;22;49677;-74
2022/11/18 09:09:42;;;;;;;;;4.00;2.00;;;;;10.09;100.00;100121.44;6234765;22;49962;-73
2022/11/18 09:12:08;;;;;;;;;2.00;1.00;;;;;9.78;100.00;100094.84;6235431;22;49552;-74
2022/11/18 09:14:33;;;;;;;;;1.00;1.00;;;;;9.35;100.00;99988.56;6236138;22;49659;-72
2022/11/18 09:16:58;;;;;;;;;4.00;2.00;;;;;11.03;100.00;100271.31;6236256;22;49742;-73
2022/11/18 09:19:24;;;;;;;;;2.00;2.00;;;;;10.92;100.00;100254.56;6236239;22;49660;-74
2022/11/18 09:21:49;;;;;;;;;3.25;2.00;;;;;9.73;100.00;100031.84;6240545;22;49992;-73
2022/11/18 09:24:15;;;;;;;;;1.50;1.50;;;;;10.57;100.00;100164.03;6212875;22;50240;-75
2022/11/18 09:26:40;;;;;;;;;2.00;1.00;;;;;9.72;100.00;99997.75;6237235;22;49666;-73
2022/11/18 09:29:07;;;;;;;;;1.25;1.00;;;;;10.94;100.00;100201.19;6236037;22;49870;-73
2022/11/18 09:31:32;;;;;;;;;2.50;2.50;;;;;11.23;100.00;100261.03;6235034;22;49698;-73
2022/11/18 09:33:59;;;;;;;;;2.50;0.00;;;;;11.15;100.00;100227.66;6237246;22;49693;-73
2022/11/18 09:36:25;;;;;;;;;1.75;1.25;;;;;10.66;100.00;100137.00;6236358;22;49858;-73
2022/11/18 09:38:51;;;;;;;;;2.75;1.50;;;;;10.20;100.00;100067.38;6236249;22;49982;-73
2022/11/18 09:41:44;;;;;;;;;1.50;1.00;;;;;11.59;100.00;100286.78;6235617;22;49985;-72
2022/11/18 09:44:28;;;;;;;;;2.25;2.00;;;;;11.45;100.00;100253.34;6234692;22;49906;-73
2022/11/18 09:47:26;;;;;;;;;2.50;1.50;;;;;11.71;100.00;100294.78;6235655;22;49524;-73
2022/11/18 09:49:54;;;;;;;;;1.50;1.50;;;;;11.02;100.00;100173.25;6238489;22;49872;-72
2022/11/18 09:52:38;;;;;;;;;1.25;0.00;;;;;11.80;100.00;100291.38;6234769;22;49889;-72
2022/11/18 09:55:11;;;;;;;;;1.00;1.00;;;;;11.62;100.00;100253.50;6235204;22;49670;-73
2022/11/18 09:57:39;;;;;;;;;1.00;1.00;;;;;11.86;100.00;100286.16;6236251;22;49885;-73
2022/11/18 10:00:14;;;;;;;;;1.00;1.00;;;;;11.95;100.00;100295.00;6236176;22;49667;-72
2022/11/18 10:02:59;;;;;;;;;0.75;0.75;;;;;12.03;100.00;100302.94;6236428;22;49639;-73
2022/11/18 10:05:52;;;;;;;;;2.25;1.00;;;;;12.06;100.00;100307.34;6240543;22;49531;-71
2022/11/18 10:08:27;;;;;;;;;1.75;1.75;;;;;12.03;100.00;100293.31;6238788;22;49815;-72
2022/11/18 10:11:19;;;;;;;;;0.50;0.00;;;;;12.04;100.00;100288.94;6236293;22;49770;-72
2022/11/18 10:14:01;;;;;;;;;2.00;1.50;;;;;12.18;100.00;100307.47;6208187;22;49620;-72
2022/11/18 10:16:35;;;;;;;;;1.50;1.50;;;;;11.31;100.00;100152.50;6235984;22;49648;-72
2022/11/18 10:19:25;;;;;;;;;2.00;1.00;;;;;12.20;100.00;100305.72;6236003;22;49915;-72
2022/11/18 10:21:56;;;;;;;;;1.00;1.00;;;;;12.25;100.00;100303.97;6235695;22;50396;-72
2022/11/18 10:24:26;;;;;;;;;0.25;0.25;;;;;12.30;100.00;100315.44;6236468;22;49635;-72
2022/11/18 10:26:58;;;;;;;;;0.25;0.25;;;;;12.32;100.00;100303.16;6236975;22;49909;-73
2022/11/18 10:29:24;;;;;;;;;1.00;1.00;;;;;11.25;100.00;100147.19;6235307;22;49676;-72
2022/11/18 10:32:04;;;;;;;;;3.00;1.00;;;;;11.45;100.00;100135.06;6236070;22;51066;-73
2022/11/18 10:34:32;;;;;;;;;0.75;0.75;;;;;11.67;100.00;100208.84;6208439;22;49931;-72
2022/11/18 10:37:06;;;;;;;;;3.00;0.75;;;;;12.16;100.00;100252.19;6235808;22;49891;-72
2022/11/18 10:39:32;;;;;;;;;2.25;2.00;;;;;11.07;100.00;100052.47;6236443;22;49876;-72
2022/11/18 10:42:05;;;;;;;;;2.00;2.00;;;;;11.67;99.07;100136.09;6208443;22;52294;-71
2022/11/18 10:44:41;;;;;;;;;0.00;0.00;;;;;12.80;98.76;100312.19;6235410;22;49675;-72
2022/11/18 10:47:22;;;;;;;;;1.25;1.25;;;;;12.90;96.64;100312.25;6236923;22;49865;-73
2022/11/18 10:49:47;;;;;;;;;2.50;2.00;;;;;11.44;95.67;100038.69;6236770;22;49859;-72
2022/11/18 10:52:13;;;;;;;;;0.75;0.75;;;;;13.11;96.04;100308.78;6235699;22;49737;-73
2022/11/18 10:54:40;;;;;;;;;1.00;1.00;;;;;13.08;94.43;100277.19;6235854;22;49787;-72
2022/11/18 10:57:22;;;;;;;;;3.50;1.00;;;;;13.09;94.39;100270.16;6235986;22;49697;-73
2022/11/18 10:59:53;;;;;;;;;0.00;0.00;;;;;13.37;92.87;100303.63;6235684;22;49883;-71
2022/11/18 11:02:31;;;;;;;;;4.00;1.00;;;;;13.35;91.95;100307.16;6236055;22;49706;-72
2022/11/18 11:05:01;;;;;;;;;1.00;1.00;;;;;13.43;92.63;100301.03;6235853;22;50058;-73
2022/11/18 11:07:35;;;;;;;;;1.00;1.00;;;;;13.20;92.50;100252.63;6207941;22;49666;-72
2022/11/18 11:10:03;;;;;;;;;2.50;1.00;;;;;13.60;92.15;100302.78;6235935;22;49914;-73
2022/11/18 11:12:32;;;;;;;;;1.50;0.75;;;;;12.99;91.76;100187.56;6235718;22;50711;-74
2022/11/18 11:15:03;;;;;;;;;0.25;0.25;;;;;13.45;90.97;100253.56;6235896;22;49931;-73
2022/11/18 11:20:40;;;;;;;;;0.75;0.75;;;;;12.51;90.30;100088.25;6235869;22;49670;-73
2022/11/18 11:23:10;;;;;;;;;1.00;0.00;;;;;14.00;89.15;100320.41;6235681;22;50377;-72
2022/11/18 11:25:45;;;;;;;;;1.00;1.00;;;;;14.12;89.63;100319.53;6236158;22;49845;-73
2022/11/18 11:28:19;;;;;;;;;0.00;0.00;;;;;14.20;88.97;100312.50;6235727;22;49986;-73
2022/11/18 11:31:01;;;;;;;;;1.75;1.75;;;;;13.13;88.28;100151.59;6235198;22;49665;-72
2022/11/18 11:33:35;;;;;;;;;1.75;1.00;;;;;14.13;87.38;100284.31;6208017;22;50496;-77
2022/11/18 11:36:26;;;;;;;;;2.00;0.25;;;;;14.29;86.82;100309.84;6236294;22;49738;-74
2022/11/18 11:38:58;;;;;;;;;0.50;0.50;;;;;14.32;86.34;100301.03;6236185;22;49603;-72
2022/11/18 11:41:33;;;;;;;;;0.00;0.00;;;;;13.85;86.44;100206.94;6236056;22;49587;-74
2022/11/18 11:44:23;;;;;;;;;2.00;0.00;;;;;14.42;85.47;100301.88;6234454;22;49670;-75
2022/11/18 11:50:17;;;;;;;;;1.00;1.00;;;;;13.33;85.00;100120.00;6235470;22;49766;-78
2022/11/18 11:52:55;;;;;;;;;3.50;1.00;;;;;13.77;84.23;100187.63;6236426;22;49726;-75
2022/11/18 11:55:26;;;;;;;;;0.25;0.25;;;;;14.33;82.88;100279.88;6236306;22;50225;-76
2022/11/18 11:57:54;;;;;;;;;0.00;0.00;;;;;14.49;82.84;100299.25;6236354;22;49912;-80
2022/11/18 12:00:20;;;;;;;;;1.00;1.00;;;;;13.87;83.84;100222.78;6236109;22;49715;-80
2022/11/18 12:03:36;;;;;;;;;2.00;1.75;;;;;14.43;83.31;100296.59;6236381;22;49995;-77
2022/11/18 12:06:01;;;;;;;;;3.25;1.00;;;;;14.31;83.45;100292.22;6235679;22;51130;-75
2022/11/18 12:08:30;;;;;;;;;0.25;0.25;;;;;14.37;83.79;100298.34;6235689;22;49848;-79
2022/11/18 12:11:04;;;;;;;;;0.50;0.50;;;;;13.58;83.35;100167.41;6236153;22;49532;-76
2022/11/18 12:13:32;;;;;;;;;2.50;1.00;;;;;14.26;84.12;100301.03;6235542;22;49780;-81
2022/11/18 12:16:14;;;;;;;;;2.50;1.00;;;;;14.30;83.66;100306.31;6235816;22;50400;-74
2022/11/18 12:18:58;;;;;;;;;1.00;0.50;;;;;13.36;82.88;100179.72;6236257;22;49505;-79
2022/11/18 12:21:45;;;;;;;;;7.00;3.25;;;;;14.25;83.89;100308.06;6207268;22;49897;-79
2022/11/18 12:24:49;;;;;;;;;3.00;1.00;;;;;14.28;82.52;100310.72;6235779;22;49815;-79
2022/11/18 12:27:38;;;;;;;;;7.75;4.25;;;;;14.38;81.68;100310.69;6082032;23;50613;-77
2022/11/18 12:30:04;;;;;;;;;3.25;1.00;;;;;13.75;81.28;100203.44;6094616;23;49723;-77
2022/11/18 12:32:41;;;;;;;;;2.50;2.00;;;;;14.46;80.51;100317.75;6178823;22;49756;-81
2022/11/18 12:35:12;;;;;;;;;1.50;0.00;;;;;14.52;80.41;100298.38;6240267;22;49756;-77
2022/11/18 12:37:55;;;;;;;;;0.00;0.00;;;;;14.49;79.86;100301.91;6236280;22;49654;-77
2022/11/18 12:40:42;;;;;;;;;1.75;1.00;;;;;13.87;80.28;100212.22;6233350;22;49539;-78
2022/11/18 12:43:49;;;;;;;;;0.00;0.00;;;;;13.81;80.23;100199.06;6233298;22;49732;-80
2022/11/18 12:46:33;;;;;;;;;1.00;1.00;;;;;14.53;80.73;100308.06;6236377;22;49665;-80
2022/11/18 12:49:21;;;;;;;;;0.00;0.00;;;;;14.60;80.85;100310.69;6234408;22;50459;-75
2022/11/18 12:52:01;;;;;;;;;0.00;0.00;;;;;14.60;78.73;100323.00;6235888;22;49720;-78
2022/11/18 12:54:29;;;;;;;;;0.25;0.25;;;;;14.64;79.92;100308.91;6238226;22;49522;-78
2022/11/18 12:57:07;;;;;;;;;2.50;1.00;;;;;14.71;78.90;100307.13;6236113;22;49955;-78
2022/11/18 12:59:35;;;;;;;;;0.00;0.00;;;;;14.75;78.71;100316.78;6232477;22;49752;-76
2022/11/18 13:02:06;;;;;;;;;3.25;1.00;;;;;13.49;77.52;100097.09;6237719;22;49724;-78
2022/11/18 13:04:31;;;;;;;;;0.00;0.00;;;;;14.70;78.30;100292.16;6238274;22;49777;-80
2022/11/18 13:06:59;;;;;;;;;2.00;0.00;;;;;14.46;78.27;100272.84;6239084;22;49646;-74
2022/11/18 13:09:28;;;;;;;;;1.00;1.00;;;;;14.45;78.77;100251.72;6239554;22;49887;-74
2022/11/18 13:12:03;;;;;;;;;0.25;0.25;;;;;14.26;76.81;100175.16;6236805;22;49700;-74
2022/11/18 13:17:57;;;;;;;;;1.25;1.25;;;;;15.16;77.00;100320.16;6238791;22;49902;-74
2022/11/18 13:20:32;;;;;;;;;2.50;1.00;;;;;15.04;75.56;100316.66;6235750;22;49817;-74
2022/11/18 13:25:45;;;;;;;;;2.00;2.00;;;;;13.94;75.94;100177.03;6235478;22;49659;-76
2022/11/18 13:28:16;;;;;;;;;0.75;0.75;;;;;14.99;75.55;100308.78;6237330;22;49891;-75
2022/11/18 13:30:53;;;;;;;;;0.50;0.50;;;;;15.09;75.38;100315.78;6234768;22;49844;-75
2022/11/18 13:33:18;;;;;;;;;1.50;1.50;;;;;14.47;74.61;100205.94;6239666;22;49758;-77
2022/11/18 13:35:44;;;;;;;;;1.50;1.00;;;;;14.13;73.87;100138.28;6236335;22;49789;-76
2022/11/18 13:38:20;;;;;;;;;4.25;1.00;;;;;15.25;73.57;100308.66;6236905;22;49694;-75
2022/11/18 13:41:11;;;;;;;;;2.00;1.00;;;;;15.08;73.54;100287.59;6235608;22;49886;-76
2022/11/18 13:43:34;;;;;;;;;3.75;2.00;;;;;14.62;73.47;100198.84;6236618;22;49835;-75
2022/11/18 13:46:04;;;;;;;;;1.00;1.00;;;;;14.28;74.14;100132.91;6237854;22;49840;-75
2022/11/18 13:48:34;;;;;;;;;2.00;2.00;;;;;14.75;79.37;100222.53;6240680;22;49717;-76
2022/11/18 13:51:01;;;;;;;;;1.00;1.00;;;;;14.25;79.72;100139.09;6236891;22;50456;-75
2022/11/18 13:53:32;;;;;;;;;1.25;0.75;;;;;14.35;80.78;100163.69;6236437;22;49611;-76
2022/11/18 13:56:02;;;;;;;;;2.25;1.00;;;;;13.88;79.20;100089.97;6238716;22;49571;-76
2022/11/18 13:58:50;;;;;;;;;2.75;1.00;;;;;14.41;82.53;100162.81;6209402;22;49863;-76
2022/11/18 14:01:27;;;;;;;;;2.00;1.00;;;;;15.31;77.61;100311.25;6237103;22;50548;-75
2022/11/18 14:04:02;;;;;;;;;1.50;1.50;;;;;13.84;77.39;100102.31;6238250;22;49691;-76
2022/11/18 14:06:35;;;;;;;;;3.50;0.50;;;;;15.08;77.48;100310.50;6236006;22;49558;-76
2022/11/18 14:09:06;;;;;;;;;2.00;1.00;;;;;14.68;79.12;100278.06;6236782;22;49889;-76
2022/11/18 14:11:35;;;;;;;;;0.50;0.50;;;;;13.90;78.79;100155.06;6236456;22;50531;-77
2022/11/18 14:14:01;;;;;;;;;1.00;1.00;;;;;14.08;79.05;100198.97;6235627;22;49729;-75
2022/11/18 14:17:02;;;;;;;;;2.00;0.25;;;;;14.76;78.70;100321.19;6235752;22;49639;-85
2022/11/18 14:19:30;;;;;;;;;0.00;0.00;;;;;13.72;78.13;100163.91;6214551;22;49706;-77
2022/11/18 14:22:03;;;;;;;;;1.25;1.25;;;;;13.95;79.00;100229.81;6248061;22;51393;-78
2022/11/18 14:24:29;;;;;;;;;1.00;1.00;;;;;13.32;78.59;100125.28;6221601;22;49463;-78
2022/11/18 14:26:54;;;;;;;;;1.00;1.00;;;;;12.93;78.92;100081.28;6215479;22;49953;-78
2022/11/18 14:29:21;;;;;;;;;2.00;2.00;;;;;14.37;79.24;100356.44;6246955;22;49180;-79
2022/11/18 14:32:24;;;;;;;;;2.00;0.75;;;;;12.76;78.99;100070.75;6220779;22;52584;-78
2022/11/18 14:35:01;;;;;;;;;1.00;1.00;;;;;12.52;78.08;100061.94;6094201;23;49873;-78
2022/11/18 14:37:27;;;;;;;;;0.50;0.50;;;;;14.30;78.36;100337.13;6203521;22;49641;-76
2022/11/18 14:39:55;;;;;;;;;1.00;1.00;;;;;14.14;79.44;100314.25;6248188;22;49255;-76
2022/11/18 14:42:20;;;;;;;;;0.75;0.25;;;;;14.14;78.11;100317.75;6221324;22;51780;-78
2022/11/18 14:44:45;;;;;;;;;1.00;1.00;;;;;14.33;78.12;100356.47;6247702;22;49540;-82
2022/11/18 14:47:23;;;;;;;;;1.50;1.25;;;;;14.01;77.95;100285.22;6219162;22;49351;-75
2022/11/18 14:49:49;;;;;;;;;0.75;0.75;;;;;14.32;78.27;100351.19;6208557;22;49912;-75
2022/11/18 14:52:17;;;;;;;;;4.50;2.25;;;;;13.50;78.34;100206.09;6235867;22;49710;-77
2022/11/18 14:54:43;;;;;;;;;2.50;1.50;;;;;14.08;78.09;100301.91;6236819;22;49688;-78
2022/11/18 14:57:14;;;;;;;;;3.00;2.00;;;;;14.23;78.52;100327.44;6211637;22;49575;-78
2022/11/18 14:59:39;;;;;;;;;0.25;0.00;;;;;14.42;78.21;100347.66;6239644;22;49640;-79
2022/11/18 15:02:13;;;;;;;;;4.00;1.75;;;;;14.45;78.46;100354.72;6208623;22;51497;-76
2022/11/18 15:04:39;;;;;;;;;2.00;0.25;;;;;14.48;78.88;100358.25;6207965;22;49682;-76
2022/11/18 15:07:10;;;;;;;;;3.00;3.00;;;;;14.19;77.29;100318.66;6234810;22;49877;-79
2022/11/18 15:09:36;;;;;;;;;1.25;1.00;;;;;14.48;76.40;100360.03;6237467;22;49714;-80
2022/11/18 15:12:02;;;;;;;;;1.00;0.50;;;;;13.74;76.88;100258.84;6234442;22;50431;-80
2022/11/18 15:14:27;;;;;;;;;0.00;0.00;;;;;13.13;76.09;100133.13;6206960;22;49699;-78
2022/11/18 15:16:53;;;;;;;;;1.00;1.00;;;;;14.52;75.56;100404.03;6208593;22;50056;-79
2022/11/18 15:19:18;;;;;;;;;1.25;1.25;;;;;13.92;74.22;100266.75;6236644;22;49789;-79
2022/11/18 15:21:44;;;;;;;;;2.00;1.00;;;;;13.97;74.26;100304.56;6235385;22;49861;-78
2022/11/18 15:24:09;;;;;;;;;1.00;0.00;;;;;13.68;74.22;100257.06;6235737;22;49998;-78
2022/11/18 15:26:38;;;;;;;;;0.00;0.00;;;;;14.13;72.61;100373.19;6236712;22;49751;-78
2022/11/18 15:29:04;;;;;;;;;0.00;0.00;;;;;13.49;71.03;100268.50;6235944;22;49632;-76
2022/11/18 15:31:29;;;;;;;;;2.00;0.50;;;;;13.74;71.99;100335.34;6235542;22;50329;-77
2022/11/18 15:33:55;;;;;;;;;2.50;1.00;;;;;13.04;71.32;100221.84;6207397;22;49831;-77
2022/11/18 15:36:25;;;;;;;;;4.00;1.50;;;;;12.47;72.85;100142.66;6208665;22;49787;-82
2022/11/18 15:38:53;;;;;;;;;0.75;0.75;;;;;12.90;73.47;100253.41;6208795;22;49583;-79
2022/11/18 15:41:24;;;;;;;;;2.00;1.25;;;;;13.89;74.93;100424.19;6234822;22;49690;-77
2022/11/18 15:43:50;;;;;;;;;1.00;0.75;;;;;12.45;76.51;100190.91;6235739;22;49685;-76
2022/11/18 15:46:18;;;;;;;;;1.00;0.50;;;;;13.77;77.02;100403.06;6238330;22;49587;-79
2022/11/18 15:48:43;;;;;;;;;2.00;0.00;;;;;13.60;78.35;100397.72;6245245;22;49423;-83
2022/11/18 15:51:09;;;;;;;;;1.50;1.50;;;;;13.91;80.25;100459.41;6208010;22;50300;-76
2022/11/18 15:53:34;;;;;;;;;1.50;0.25;;;;;12.98;80.46;100288.56;6237232;22;49633;-76
2022/11/18 15:56:18;;;;;;;;;1.00;1.00;;;;;13.91;80.88;100443.56;6238122;22;49484;-76
2022/11/18 15:58:44;;;;;;;;;3.00;1.50;;;;;13.24;81.31;100344.03;6243810;22;49652;-78
2022/11/18 16:01:10;;;;;;;;;2.00;2.00;;;;;12.63;81.99;100274.34;6237999;22;50469;-77
2022/11/18 16:03:36;;;;;;;;;4.00;1.75;;;;;13.56;81.43;100398.63;6233469;22;49719;-77
2022/11/18 16:06:02;;;;;;;;;1.50;0.50;;;;;12.96;81.99;100285.06;6236256;22;49934;-76
2022/11/18 16:08:29;;;;;;;;;3.25;1.00;;;;;12.75;81.10;100264.78;6235755;22;49638;-73
2022/11/18 16:13:39;;;;;;;;;3.00;2.00;;;;;12.38;81.44;100232.13;6235524;22;49856;-72
2022/11/18 16:16:04;;;;;;;;;3.50;3.50;;;;;13.31;81.33;100416.09;6236297;22;49857;-78
2022/11/18 16:18:30;;;;;;;;;1.00;1.00;;;;;13.53;82.07;100469.81;6235797;22;49508;-77
2022/11/18 16:20:59;;;;;;;;;2.00;1.00;;;;;12.68;82.25;100355.16;6235050;22;49843;-74
